Terminal Aerodrome Forecast
Issued by NWS

Home | Current Version | Previous Version | Text Only | Print | Product List | Glossary On
Versions: 1 2 3 4 5 6 7 8 9 10 11 12 13 14 15 16 17 18 19 20 21 22 23 24
000
FTUS43 KBIS 261300 AAA
TAFMOT
TAF AMD
KMOT 261331Z 2614/2712 25018G28KT P6SM SCT025
      TEMPO 2614/2617 BKN025
     FM261700 27023G33KT P6SM VCSH SCT025 BKN050
      TEMPO 2617/2621 -SHRA BKN025
     FM270200 30014KT P6SM BKN050=

USA.gov is the U.S. government's official web portal to all federal, state and local government web resources and services.